Time;durP1;ratioP1;P1;durP2;ratioP2;P2;SDS_P1;SDS_P2;PMS_P1;PMS_P2;Temp;Humidity;BMP_temperature;BMP_pressure;BME280_temperature;BME280_humidity;BME280_pressure;Samples;Min_cycle;Max_cycle;Signal;HPM_P1;HPM_P2
2022/05/25 00:02:25;;;;;;;3.85;2.90;;;10.40;99.90;;;;;;5108189;28;20108;-83
2022/05/25 00:04:52;;;;;;;5.10;3.00;;;10.30;99.90;;;;;;5119068;28;20575;-83
2022/05/25 00:07:19;;;;;;;4.57;3.45;;;11.50;99.90;;;;;;5119064;28;20569;-83
2022/05/25 00:09:46;;;;;;;4.63;2.92;;;10.30;99.90;;;;;;5097753;28;20411;-84
2022/05/25 00:12:13;;;;;;;4.18;3.22;;;11.50;99.90;;;;;;5090300;28;20368;-84
2022/05/25 00:14:39;;;;;;;4.82;3.38;;;10.30;99.90;;;;;;5109090;28;20449;-83
2022/05/25 00:17:05;;;;;;;4.45;3.33;;;11.50;99.90;;;;;;5089646;28;20048;-83
2022/05/25 00:22:16;;;;;;;7.05;3.20;;;10.90;99.90;;;;;;5106909;28;20091;-83
2022/05/25 00:24:42;;;;;;;5.95;3.83;;;11.00;99.90;;;;;;5105796;28;20492;-83
2022/05/25 00:27:07;;;;;;;7.75;3.80;;;10.20;99.90;;;;;;5107480;28;20043;-83
2022/05/25 00:29:33;;;;;;;5.10;4.03;;;10.50;99.90;;;;;;5107229;28;20055;-82
2022/05/25 00:31:59;;;;;;;6.32;4.22;;;10.90;99.90;;;;;;5108204;28;20028;-83
2022/05/25 00:34:25;;;;;;;3.88;3.28;;;10.50;99.90;;;;;;5089149;28;20546;-83
2022/05/25 00:36:51;;;;;;;6.03;3.55;;;10.20;99.90;;;;;;5106462;28;20052;-84
2022/05/25 00:39:16;;;;;;;5.25;3.95;;;10.70;99.90;;;;;;5108428;28;20468;-83
2022/05/25 00:41:42;;;;;;;4.75;3.55;;;10.80;99.90;;;;;;5092706;28;20039;-82
2022/05/25 00:44:08;;;;;;;5.13;4.15;;;11.10;99.90;;;;;;5126979;28;20068;-82
2022/05/25 00:46:37;;;;;;;5.60;4.22;;;10.60;99.90;;;;;;5092095;28;20074;-84
2022/05/25 00:49:26;;;;;;;9.70;4.47;;;10.40;99.90;;;;;;5090307;28;20130;-83
2022/05/25 00:51:54;;;;;;;6.15;4.70;;;10.00;99.90;;;;;;5107248;28;20070;-83
2022/05/25 00:54:42;;;;;;;9.02;4.47;;;10.10;99.90;;;;;;5105931;28;20043;-82
2022/05/25 00:57:14;;;;;;;9.32;4.70;;;10.80;99.90;;;;;;5107108;28;20493;-83
2022/05/25 01:00:04;;;;;;;11.10;4.78;;;10.10;99.90;;;;;;5106302;28;20068;-83
2022/05/25 01:02:33;;;;;;;5.22;4.63;;;10.10;99.90;;;;;;5105875;28;20552;-83
2022/05/25 01:04:59;;;;;;;6.05;4.95;;;10.10;99.90;;;;;;5105660;28;20085;-83
2022/05/25 01:07:39;;;;;;;11.90;6.15;;;10.70;99.90;;;;;;5106646;28;20429;-83
2022/05/25 01:10:37;;;;;;;9.90;5.70;;;10.10;99.90;;;;;;5106941;28;20048;-83
2022/05/25 01:13:40;;;;;;;8.65;6.20;;;10.20;99.90;;;;;;5077040;28;20075;-83
2022/05/25 01:16:13;;;;;;;8.80;5.30;;;10.10;99.90;;;;;;5105029;28;20047;-83
2022/05/25 01:18:45;;;;;;;;;;;11.30;99.90;;;;;;5107128;28;20874;-83
2022/05/25 01:21:18;;;;;;;8.80;6.07;;;10.20;99.90;;;;;;5105145;28;20037;-83
2022/05/25 01:23:50;;;;;;;7.40;5.45;;;10.20;99.90;;;;;;5105727;28;20466;-83
2022/05/25 01:26:53;;;;;;;8.60;5.55;;;10.10;99.90;;;;;;5105413;28;20048;-83
2022/05/25 01:29:22;;;;;;;8.27;5.28;;;10.10;99.90;;;;;;5106209;28;20047;-83
2022/05/25 01:31:54;;;;;;;10.20;5.45;;;10.10;99.90;;;;;;5105734;28;20057;-83
2022/05/25 01:34:33;;;;;;;8.55;5.22;;;10.10;99.90;;;;;;5105191;28;20495;-83
2022/05/25 01:37:24;;;;;;;10.30;5.88;;;10.10;99.90;;;;;;5105219;28;20564;-83
2022/05/25 01:40:22;;;;;;;7.45;5.57;;;10.10;99.90;;;;;;5106010;28;20059;-83
2022/05/25 01:43:14;;;;;;;8.75;5.28;;;10.10;99.90;;;;;;5086992;28;20221;-83
2022/05/25 01:45:54;;;;;;;9.38;6.28;;;11.20;99.90;;;;;;5085608;28;20062;-83
2022/05/25 01:48:22;;;;;;;11.93;6.07;;;11.30;99.90;;;;;;5108703;28;20051;-84
2022/05/25 01:50:56;;;;;;;7.10;5.63;;;10.20;99.90;;;;;;5125092;28;20031;-83
2022/05/25 01:53:25;;;;;;;10.93;6.63;;;10.10;99.90;;;;;;5124793;28;20125;-84
2022/05/25 01:55:56;;;;;;;11.93;5.97;;;11.20;99.90;;;;;;5108438;28;20047;-84
2022/05/25 01:58:24;;;;;;;11.63;7.05;;;10.70;99.90;;;;;;5105502;28;20051;-84
2022/05/25 02:00:55;;;;;;;11.43;6.90;;;10.60;99.90;;;;;;5106898;28;20051;-83
2022/05/25 02:06:47;;;;;;;12.80;8.05;;;10.90;99.90;;;;;;5106090;28;20404;-83
2022/05/25 02:09:18;;;;;;;7.93;6.78;;;10.00;99.90;;;;;;5088217;28;20563;-82
2022/05/25 02:11:48;;;;;;;12.80;6.95;;;10.00;99.90;;;;;;5106177;28;21041;-83
2022/05/25 02:14:48;;;;;;;12.52;7.55;;;10.50;99.90;;;;;;5107830;28;20043;-82
2022/05/25 02:17:27;;;;;;;11.55;8.60;;;10.00;99.90;;;;;;5120262;28;20055;-82
2022/05/25 02:20:09;;;;;;;11.63;7.85;;;10.70;99.90;;;;;;5107868;28;20058;-82
2022/05/25 02:22:56;;;;;;;11.45;7.60;;;10.00;99.90;;;;;;5106296;28;20558;-83
2022/05/25 02:25:25;;;;;;;10.45;8.88;;;10.80;99.90;;;;;;5104848;28;20066;-82
2022/05/25 02:28:02;;;;;;;11.98;7.78;;;10.00;99.90;;;;;;5104790;28;20096;-83
2022/05/25 02:30:32;;;;;;;11.85;8.93;;;10.00;99.90;;;;;;5106345;28;20360;-83
2022/05/25 02:33:20;;;;;;;11.65;8.23;;;10.70;99.90;;;;;;5109101;28;20101;-83
2022/05/25 02:35:47;;;;;;;12.93;7.72;;;10.10;99.90;;;;;;5109291;28;20540;-83
2022/05/25 02:38:13;;;;;;;11.95;8.18;;;10.70;99.90;;;;;;5074790;28;20092;-83
2022/05/25 02:40:40;;;;;;;9.63;6.90;;;10.00;99.90;;;;;;5108567;28;20058;-83
2022/05/25 02:43:08;;;;;;;11.00;8.32;;;10.40;99.90;;;;;;5108184;28;20500;-84
2022/05/25 02:45:35;;;;;;;13.90;9.27;;;10.00;99.90;;;;;;5109675;28;20039;-84
2022/05/25 02:48:02;;;;;;;11.98;8.85;;;11.10;99.90;;;;;;5092277;28;20510;-83
2022/05/25 02:50:28;;;;;;;14.43;9.20;;;10.00;99.90;;;;;;5107572;28;20043;-83
2022/05/25 02:52:53;;;;;;;13.18;8.88;;;10.30;99.90;;;;;;5108690;28;20377;-84
2022/05/25 02:55:19;;;;;;;12.68;8.80;;;10.00;99.90;;;;;;5109214;28;20050;-84
2022/05/25 02:57:45;;;;;;;13.70;9.43;;;10.00;99.90;;;;;;5090810;28;20440;-83
2022/05/25 03:00:12;;;;;;;13.80;9.23;;;10.10;99.90;;;;;;5108924;28;20040;-84
2022/05/25 03:02:38;;;;;;;16.73;11.30;;;10.00;99.90;;;;;;5107822;28;20608;-83
2022/05/25 03:05:06;;;;;;;17.13;9.48;;;10.90;99.90;;;;;;5108625;28;20467;-84
2022/05/25 03:07:32;;;;;;;14.93;9.30;;;10.00;99.90;;;;;;5090657;28;20126;-83
2022/05/25 03:09:57;;;;;;;11.60;8.93;;;10.50;99.90;;;;;;5108606;28;20487;-83
2022/05/25 03:12:23;;;;;;;13.15;9.82;;;10.90;99.90;;;;;;5109171;28;20263;-83
2022/05/25 03:14:49;;;;;;;13.90;9.23;;;10.90;99.90;;;;;;5108392;28;20043;-84
2022/05/25 03:17:15;;;;;;;11.40;8.20;;;11.20;99.90;;;;;;5090336;28;20373;-83
2022/05/25 03:19:42;;;;;;;14.10;10.35;;;10.50;99.90;;;;;;5090318;28;20077;-84
2022/05/25 03:22:09;;;;;;;12.43;9.45;;;9.90;99.90;;;;;;5108015;28;20048;-82
2022/05/25 03:24:35;;;;;;;13.43;9.63;;;10.00;99.90;;;;;;5089814;28;20047;-83
2022/05/25 03:27:01;;;;;;;11.95;9.13;;;9.90;99.90;;;;;;5109452;28;20579;-82
2022/05/25 03:29:26;;;;;;;13.77;8.25;;;9.90;99.90;;;;;;5108388;28;20452;-83
2022/05/25 03:31:53;;;;;;;10.82;8.65;;;9.90;99.90;;;;;;5092054;28;20040;-83
2022/05/25 03:34:18;;;;;;;11.13;9.10;;;10.50;99.90;;;;;;5109833;28;20488;-83
2022/05/25 03:36:45;;;;;;;13.88;10.00;;;10.80;99.90;;;;;;5125162;28;20108;-82
2022/05/25 03:39:11;;;;;;;16.73;9.55;;;9.90;99.90;;;;;;5105151;28;20047;-83
2022/05/25 03:41:36;;;;;;;15.02;8.90;;;11.00;99.90;;;;;;5093512;28;20048;-83
2022/05/25 03:44:03;;;;;;;11.85;9.52;;;10.60;99.90;;;;;;5110217;28;20043;-83
2022/05/25 03:46:28;;;;;;;13.60;9.25;;;9.80;99.90;;;;;;5106777;28;20055;-82
2022/05/25 03:48:54;;;;;;;13.00;9.18;;;10.90;99.90;;;;;;5090267;28;20081;-83
2022/05/25 03:51:20;;;;;;;12.63;8.88;;;10.20;99.90;;;;;;5108349;28;20052;-84
2022/05/25 03:53:46;;;;;;;12.10;8.88;;;10.70;99.90;;;;;;5107093;28;20106;-83
2022/05/25 03:56:12;;;;;;;12.05;9.70;;;9.80;99.90;;;;;;5107324;28;20052;-83
2022/05/25 03:58:37;;;;;;;15.45;9.50;;;9.90;99.90;;;;;;5106498;28;20088;-83
2022/05/25 04:01:03;;;;;;;15.20;10.07;;;10.40;99.90;;;;;;5090270;28;20050;-83
2022/05/25 04:03:29;;;;;;;15.98;9.93;;;11.20;99.90;;;;;;5090007;28;20475;-83
2022/05/25 04:05:54;;;;;;;14.93;9.90;;;9.90;99.90;;;;;;5073222;28;20043;-84
2022/05/25 04:08:20;;;;;;;15.30;10.23;;;10.90;99.90;;;;;;5089222;28;20128;-83
2022/05/25 04:10:46;;;;;;;14.32;9.52;;;10.10;99.90;;;;;;5106435;28;20141;-84
2022/05/25 04:13:11;;;;;;;13.25;9.07;;;10.30;99.90;;;;;;5106722;28;20044;-84
2022/05/25 04:15:37;;;;;;;16.63;9.10;;;9.90;99.90;;;;;;5089368;28;20036;-82
2022/05/25 04:18:03;;;;;;;13.45;9.00;;;9.90;99.90;;;;;;5090747;28;20073;-82
2022/05/25 04:20:32;;;;;;;16.58;9.48;;;10.00;99.90;;;;;;5106602;28;20075;-82
2022/05/25 04:22:58;;;;;;;16.55;9.43;;;10.00;99.90;;;;;;5106706;28;20050;-82
2022/05/25 04:25:25;;;;;;;12.45;8.82;;;11.00;99.90;;;;;;5106042;28;20557;-82
2022/05/25 04:27:53;;;;;;;13.80;9.45;;;10.10;99.90;;;;;;5106024;28;20051;-82
2022/05/25 04:30:21;;;;;;;17.50;9.55;;;10.90;99.90;;;;;;5106140;28;20052;-83
2022/05/25 04:32:47;;;;;;;13.15;9.02;;;11.20;99.90;;;;;;5106022;28;20055;-83
2022/05/25 04:35:15;;;;;;;13.65;9.07;;;10.10;99.90;;;;;;5108314;28;20135;-84
2022/05/25 04:37:52;;;;;;;16.17;9.32;;;10.50;99.90;;;;;;5105783;28;20570;-84
2022/05/25 04:40:21;;;;;;;19.15;9.07;;;11.20;99.90;;;;;;5089821;28;20085;-84
2022/05/25 04:42:48;;;;;;;12.70;9.13;;;10.40;99.90;;;;;;5105795;28;20035;-85
2022/05/25 04:45:14;;;;;;;11.05;8.43;;;10.50;99.90;;;;;;5107881;28;20545;-85
2022/05/25 04:47:42;;;;;;;15.23;9.07;;;11.10;99.90;;;;;;5104027;28;20044;-86
2022/05/25 04:50:10;;;;;;;12.27;8.60;;;11.60;99.90;;;;;;5074671;28;20047;-87
2022/05/25 04:52:37;;;;;;;10.95;7.90;;;10.50;99.90;;;;;;5108467;28;20040;-86
2022/05/25 04:55:08;;;;;;;11.10;8.30;;;10.50;99.90;;;;;;5105960;28;20119;-83
2022/05/25 04:57:34;;;;;;;15.50;8.57;;;10.60;99.90;;;;;;5089337;28;20652;-86
2022/05/25 05:00:03;;;;;;;13.95;7.72;;;10.60;99.90;;;;;;5105139;28;20416;-87
2022/05/25 05:02:30;;;;;;;15.90;8.50;;;10.70;99.90;;;;;;5105937;28;20082;-86
2022/05/25 05:04:56;;;;;;;15.70;8.00;;;11.70;99.90;;;;;;5106594;28;20061;-86
2022/05/25 05:07:33;;;;;;;14.50;8.55;;;10.80;99.90;;;;;;5072823;28;20051;-82
2022/05/25 05:10:01;;;;;;;13.40;7.68;;;10.90;99.90;;;;;;5108412;28;20143;-80
2022/05/25 05:12:29;;;;;;;11.75;7.30;;;10.90;99.90;;;;;;5109237;28;20481;-85
2022/05/25 05:14:57;;;;;;;12.35;7.85;;;12.00;99.90;;;;;;5091656;28;20130;-86
2022/05/25 05:17:23;;;;;;;11.30;7.20;;;11.60;99.90;;;;;;5109011;28;20044;-84
2022/05/25 05:19:49;;;;;;;11.77;7.45;;;11.10;99.90;;;;;;5091053;28;20062;-83
2022/05/25 05:22:15;;;;;;;10.70;7.70;;;11.10;99.90;;;;;;5107822;28;20027;-85
2022/05/25 05:24:40;;;;;;;9.90;7.18;;;11.20;99.90;;;;;;5107505;28;20035;-85
2022/05/25 05:27:08;;;;;;;9.45;7.13;;;11.30;99.90;;;;;;5073281;28;20484;-87
2022/05/25 05:29:34;;;;;;;10.90;7.32;;;11.30;99.90;;;;;;5106087;28;20079;-87
2022/05/25 05:32:00;;;;;;;10.27;8.18;;;11.20;99.90;;;;;;5106479;28;20463;-86
2022/05/25 05:34:28;;;;;;;9.68;7.40;;;11.50;99.90;;;;;;5105784;28;20036;-86
2022/05/25 05:37:14;;;;;;;12.18;7.70;;;11.50;99.90;;;;;;5072490;28;20059;-81
2022/05/25 05:39:43;;;;;;;11.70;6.80;;;11.70;99.90;;;;;;5106670;28;20047;-81
2022/05/25 05:42:12;;;;;;;9.80;6.88;;;12.20;99.90;;;;;;5107206;28;20071;-80
2022/05/25 05:45:06;;;;;;;11.00;7.32;;;12.50;99.90;;;;;;5107788;28;20075;-84
2022/05/25 05:47:42;;;;;;;10.52;6.63;;;11.90;99.90;;;;;;5106818;28;20043;-82
2022/05/25 05:50:09;;;;;;;7.70;6.15;;;12.00;99.90;;;;;;5088772;28;20120;-85
2022/05/25 05:52:35;;;;;;;8.82;6.53;;;12.10;99.90;;;;;;5055935;28;20041;-85
2022/05/25 05:55:03;;;;;;;10.73;6.65;;;12.90;99.90;;;;;;5072110;28;20088;-85
2022/05/25 05:57:29;;;;;;;8.88;6.10;;;12.20;99.90;;;;;;5105867;28;20047;-85
2022/05/25 05:59:54;;;;;;;8.55;6.13;;;13.10;99.90;;;;;;5105469;28;20460;-84
2022/05/25 06:02:20;;;;;;;8.52;6.72;;;12.40;99.90;;;;;;5105825;28;20074;-83
2022/05/25 06:04:46;;;;;;;8.73;5.78;;;12.50;99.90;;;;;;5107444;28;20125;-83
2022/05/25 06:07:11;;;;;;;10.27;6.82;;;12.60;99.90;;;;;;5091957;28;20484;-84
2022/05/25 06:09:37;;;;;;;10.70;6.18;;;13.00;99.90;;;;;;5109716;28;20043;-85
2022/05/25 06:12:03;;;;;;;9.77;6.20;;;12.70;99.90;;;;;;5109518;28;20043;-85
2022/05/25 06:14:29;;;;;;;10.25;5.82;;;12.80;99.90;;;;;;5109759;28;20043;-83
2022/05/25 06:19:39;;;;;;;9.88;6.70;;;13.00;99.90;;;;;;5110718;28;20047;-82
2022/05/25 06:22:15;;;;;;;12.25;5.97;;;13.00;99.90;;;;;;5109110;28;20047;-82
2022/05/25 06:24:47;;;;;;;10.60;5.18;;;13.10;99.90;;;;;;5108928;28;20043;-83
2022/05/25 06:27:14;;;;;;;6.78;5.13;;;13.20;99.90;;;;;;5109373;28;20488;-82
2022/05/25 06:29:46;;;;;;;4.80;4.25;;;13.90;99.90;;;;;;5110192;28;20457;-82
2022/05/25 06:32:14;;;;;;;6.57;4.78;;;13.80;99.90;;;;;;5108825;28;20169;-82
2022/05/25 06:34:42;;;;;;;9.38;4.65;;;13.70;99.90;;;;;;5110601;28;20050;-82
2022/05/25 06:37:13;;;;;;;6.53;4.57;;;13.90;99.90;;;;;;5108405;28;20043;-82
2022/05/25 06:39:39;;;;;;;9.02;4.65;;;13.60;99.90;;;;;;5110909;28;20089;-82
2022/05/25 06:42:06;;;;;;;6.63;3.88;;;13.70;99.90;;;;;;5108694;28;20039;-82
2022/05/25 06:44:32;;;;;;;8.18;3.95;;;13.80;99.90;;;;;;5091943;28;20093;-82
2022/05/25 06:46:58;;;;;;;6.20;3.72;;;13.90;99.90;;;;;;5108148;28;20051;-82
2022/05/25 06:49:25;;;;;;;6.95;3.95;;;14.00;99.90;;;;;;5108044;28;20043;-82
2022/05/25 06:51:50;;;;;;;7.60;3.65;;;14.90;99.90;;;;;;5109961;28;20131;-82
2022/05/25 06:54:18;;;;;;;5.65;3.90;;;14.20;99.90;;;;;;5091312;28;20130;-82
2022/05/25 06:56:44;;;;;;;5.43;3.40;;;14.20;99.90;;;;;;5108817;28;20530;-82
2022/05/25 06:59:10;;;;;;;6.25;3.30;;;14.30;99.90;;;;;;5112224;28;20047;-86
2022/05/25 07:01:38;;;;;;;4.53;3.42;;;14.40;99.90;;;;;;5094698;28;20083;-87
2022/05/25 07:04:05;;;;;;;4.50;3.05;;;14.50;99.90;;;;;;5092664;28;20085;-85
2022/05/25 07:06:30;;;;;;;5.10;3.10;;;14.60;99.90;;;;;;5091352;28;20085;-85
2022/05/25 07:08:56;;;;;;;7.32;3.35;;;14.80;99.90;;;;;;5109863;28;20039;-85
2022/05/25 07:11:26;;;;;;;5.38;2.92;;;16.00;99.90;;;;;;5108891;28;20048;-84
2022/05/25 07:13:52;;;;;;;4.50;3.28;;;14.90;99.90;;;;;;5113710;28;20404;-85
2022/05/25 07:16:20;;;;;;;5.38;2.70;;;15.10;99.90;;;;;;5129771;28;20039;-86
2022/05/25 07:18:46;;;;;;;7.65;3.35;;;15.90;99.90;;;;;;5100909;28;20071;-86
2022/05/25 07:21:15;;;;;;;3.95;3.00;;;15.20;99.90;;;;;;5109590;28;20036;-86
2022/05/25 07:23:43;;;;;;;4.00;3.47;;;15.30;99.90;;;;;;5109293;28;20036;-86
2022/05/25 07:26:09;;;;;;;3.92;2.70;;;15.50;99.90;;;;;;5108137;28;20082;-86
2022/05/25 07:28:36;;;;;;;4.05;2.55;;;15.40;99.90;;;;;;5107666;28;20408;-85
2022/05/25 07:31:21;;;;;;;4.78;3.15;;;15.50;99.90;;;;;;5108162;28;20040;-86
2022/05/25 07:33:53;;;;;;;3.10;2.55;;;15.60;99.90;;;;;;5107527;28;20512;-86
2022/05/25 07:36:20;;;;;;;6.20;2.95;;;15.70;99.90;;;;;;5109287;28;20518;-87
2022/05/25 07:38:49;;;;;;;5.18;2.63;;;15.80;99.90;;;;;;5090630;28;20040;-86
2022/05/25 07:41:17;;;;;;;5.10;2.55;;;16.20;99.90;;;;;;5108053;28;20480;-92
2022/05/25 07:43:43;;;;;;;6.82;2.95;;;15.90;99.90;;;;;;5059018;28;20040;-91
2022/05/25 07:46:09;;;;;;;5.63;2.50;;;16.00;99.90;;;;;;5074041;28;20089;-90
2022/05/25 07:48:36;;;;;;;4.78;3.08;;;16.10;99.90;;;;;;5074398;28;20044;-89
2022/05/25 07:51:03;;;;;;;4.03;2.45;;;16.10;99.90;;;;;;5073608;28;20069;-90
2022/05/25 07:56:15;;;;;;;4.15;2.35;;;16.40;99.90;;;;;;5093856;28;20059;-88
2022/05/25 07:58:41;;;;;;;3.58;1.70;;;16.60;99.90;;;;;;5073006;28;20055;-87
2022/05/25 08:01:16;;;;;;;5.78;1.95;;;16.70;99.90;;;;;;5090388;28;20058;-87
2022/05/25 08:06:29;;;;;;;4.43;2.47;;;16.90;99.90;;;;;;5107237;28;20048;-87
2022/05/25 08:08:56;;;;;;;5.50;1.98;;;17.00;99.90;;;;;;5089972;28;20480;-86
2022/05/25 08:11:22;;;;;;;3.47;1.95;;;16.90;99.90;;;;;;5089430;28;20039;-87
2022/05/25 08:13:52;;;;;;;2.47;1.60;;;17.00;99.90;;;;;;5090368;28;20079;-88
2022/05/25 08:16:19;;;;;;;3.67;1.83;;;17.20;99.90;;;;;;5107046;28;20093;-87
2022/05/25 08:18:44;;;;;;;3.97;1.67;;;17.20;99.90;;;;;;5090478;28;20051;-87
2022/05/25 08:21:10;;;;;;;4.00;2.13;;;17.10;99.90;;;;;;5106740;28;20047;-86
2022/05/25 08:23:36;;;;;;;4.80;1.90;;;17.00;99.90;;;;;;5106262;28;20088;-87
2022/05/25 08:26:02;;;;;;;3.88;2.17;;;16.90;99.90;;;;;;5089848;28;20476;-88
2022/05/25 08:28:27;;;;;;;7.25;2.15;;;16.90;99.90;;;;;;5106075;28;20051;-86
2022/05/25 08:30:54;;;;;;;5.10;2.38;;;17.00;99.90;;;;;;5106177;28;20054;-85
2022/05/25 08:33:21;;;;;;;3.10;2.10;;;17.10;99.90;;;;;;5089094;28;20040;-85
2022/05/25 08:35:48;;;;;;;4.20;2.08;;;17.30;99.90;;;;;;5108119;28;20051;-85
2022/05/25 08:38:14;;;;;;;2.53;1.75;;;17.50;99.90;;;;;;5105908;28;20567;-85
2022/05/25 08:40:41;;;;;;;6.13;2.13;;;17.60;99.90;;;;;;5108198;28;20088;-84
2022/05/25 08:43:15;;;;;;;6.82;2.17;;;17.70;99.90;;;;;;5108376;28;20106;-85
2022/05/25 08:45:44;;;;;;;4.68;1.80;;;17.70;99.90;;;;;;5114185;28;20047;-86
2022/05/25 08:48:13;;;;;;;5.38;1.75;;;17.80;99.90;;;;;;5115294;28;20054;-87
2022/05/25 08:50:41;;;;;;;4.13;1.88;;;17.80;99.90;;;;;;5092174;28;20516;-85
2022/05/25 08:53:10;;;;;;;12.18;2.17;;;17.80;99.90;;;;;;5108464;28;20039;-85
2022/05/25 08:55:39;;;;;;;3.80;1.63;;;17.90;99.90;;;;;;5107004;28;20043;-83
2022/05/25 08:58:08;;;;;;;2.10;1.40;;;18.00;99.90;;;;;;5107885;28;20103;-90
2022/05/25 09:00:34;;;;;;;2.42;1.90;;;17.40;99.90;;;;;;5089331;28;20062;-89
2022/05/25 09:03:12;;;;;;;2.75;1.52;;;18.30;99.90;;;;;;5088476;28;20079;-87
2022/05/25 09:06:00;;;;;;;2.55;1.75;;;18.30;99.90;;;;;;5106708;28;20043;-88
2022/05/25 09:08:40;;;;;;;3.40;1.23;;;18.50;99.90;;;;;;5105652;28;20493;-87
2022/05/25 09:11:22;;;;;;;2.78;1.52;;;18.50;99.90;;;;;;5088591;28;20096;-88
2022/05/25 09:13:55;;;;;;;2.88;1.52;;;18.50;99.90;;;;;;5106147;28;20134;-88
2022/05/25 09:16:23;;;;;;;3.42;1.90;;;18.50;99.90;;;;;;5088361;28;20499;-88
2022/05/25 09:18:51;;;;;;;4.95;1.75;;;18.60;99.90;;;;;;5089414;28;20063;-88
2022/05/25 09:21:21;;;;;;;2.47;1.38;;;18.60;99.90;;;;;;5105536;28;20086;-87
2022/05/25 09:23:49;;;;;;;4.28;1.25;;;18.60;99.90;;;;;;5089491;28;20483;-86
2022/05/25 09:26:15;;;;;;;2.38;1.15;;;18.60;99.90;;;;;;5108172;28;20043;-87
2022/05/25 09:28:45;;;;;;;3.45;1.70;;;18.70;99.90;;;;;;5088845;28;20035;-85
2022/05/25 09:31:15;;;;;;;3.13;1.42;;;18.60;99.90;;;;;;5106685;28;20052;-86
2022/05/25 09:33:57;;;;;;;3.42;1.42;;;18.70;99.90;;;;;;5105756;28;20039;-86
2022/05/25 09:36:28;;;;;;;3.10;1.27;;;18.90;99.90;;;;;;5089335;28;20435;-86
2022/05/25 09:39:13;;;;;;;1.95;1.38;;;19.00;99.90;;;;;;5107714;28;20038;-80
2022/05/25 09:41:45;;;;;;;2.40;1.30;;;19.20;99.90;;;;;;5106854;28;20212;-83
2022/05/25 09:44:15;;;;;;;1.73;1.08;;;19.20;99.90;;;;;;5107892;28;20035;-84
2022/05/25 09:46:48;;;;;;;2.80;1.30;;;19.20;99.90;;;;;;5122207;28;20039;-81
2022/05/25 09:49:34;;;;;;;4.22;1.33;;;19.10;99.90;;;;;;5112085;28;20047;-86
2022/05/25 09:52:04;;;;;;;4.43;1.15;;;19.00;99.90;;;;;;5107603;28;20079;-85
2022/05/25 09:54:39;;;;;;;1.73;1.17;;;18.90;99.90;;;;;;5105194;28;20082;-82
2022/05/25 09:57:23;;;;;;;1.48;1.10;;;18.70;99.90;;;;;;5105950;28;20120;-84
2022/05/25 09:59:56;;;;;;;2.03;1.20;;;18.60;99.90;;;;;;5088873;28;20442;-83
2022/05/25 10:02:52;;;;;;;3.35;1.35;;;18.60;99.90;;;;;;5104820;28;20093;-85
2022/05/25 10:05:52;;;;;;;5.95;1.42;;;18.60;99.90;;;;;;5105853;28;20106;-84
2022/05/25 10:08:40;;;;;;;2.88;1.40;;;18.60;99.90;;;;;;5080989;28;20431;-86
2022/05/25 10:11:33;;;;;;;3.65;1.52;;;18.70;99.50;;;;;;5088599;28;20455;-84
2022/05/25 10:14:25;;;;;;;4.82;1.33;;;18.80;99.90;;;;;;5089861;28;20381;-83
2022/05/25 10:16:54;;;;;;;2.25;1.70;;;18.80;99.90;;;;;;5106356;28;20039;-83
2022/05/25 10:19:21;;;;;;;2.55;1.42;;;18.80;99.90;;;;;;5104790;28;20451;-84
2022/05/25 10:21:54;;;;;;;2.22;1.52;;;18.10;99.90;;;;;;5088269;28;20043;-79
2022/05/25 10:24:56;;;;;;;2.13;1.17;;;18.60;99.90;;;;;;5105688;28;20058;-86
2022/05/25 10:27:32;;;;;;;3.80;1.65;;;18.40;99.90;;;;;;5104823;28;20051;-86
2022/05/25 10:38:21;;;;;;;2.72;1.90;;;17.70;99.90;;;;;;5111226;28;20103;-85
2022/05/25 10:40:47;;;;;;;3.15;2.15;;;17.70;99.90;;;;;;5104400;28;20065;-86
2022/05/25 10:43:17;;;;;;;4.72;1.83;;;17.70;99.90;;;;;;5105155;28;20044;-86
2022/05/25 10:45:51;;;;;;;2.40;1.50;;;17.70;99.90;;;;;;5104573;28;20503;-86
2022/05/25 10:48:47;;;;;;;4.45;2.13;;;18.30;99.90;;;;;;5088824;28;20495;-87
2022/05/25 10:51:20;;;;;;;3.78;1.70;;;18.00;99.90;;;;;;5104954;28;20395;-87
2022/05/25 10:57:11;;;;;;;2.83;1.55;;;18.20;99.90;;;;;;5108997;28;20039;-86
2022/05/25 10:59:48;;;;;;;8.80;1.80;;;18.20;99.90;;;;;;5091748;28;20044;-87
2022/05/25 11:02:32;;;;;;;3.30;1.60;;;18.10;99.90;;;;;;5091315;28;20052;-86
2022/05/25 11:05:18;;;;;;;3.80;1.73;;;18.00;99.90;;;;;;5091797;28;20079;-87
2022/05/25 11:07:45;;;;;;;2.88;1.73;;;17.80;99.90;;;;;;5108539;28;20408;-84
2022/05/25 11:10:23;;;;;;;2.55;1.80;;;17.60;99.90;;;;;;5091531;28;20507;-86
2022/05/25 11:13:09;;;;;;;5.40;2.53;;;17.30;99.90;;;;;;5108269;28;20051;-85
2022/05/25 11:16:12;;;;;;;7.45;2.72;;;17.00;99.90;;;;;;5091215;28;20484;-89
2022/05/25 11:19:16;;;;;;;8.50;2.22;;;16.50;99.90;;;;;;5109220;28;20093;-86
2022/05/25 11:21:58;;;;;;;2.67;1.58;;;15.70;99.90;;;;;;5051390;28;20043;-86
2022/05/25 11:25:10;;;;;;;3.20;1.90;;;15.20;99.90;;;;;;5091938;28;20085;-88
2022/05/25 11:28:05;;;;;;;5.80;1.65;;;15.10;99.90;;;;;;5050029;28;20056;-83
2022/05/25 11:30:34;;;;;;;2.22;1.80;;;15.20;99.90;;;;;;5109188;28;20058;-82
2022/05/25 11:33:21;;;;;;;7.00;1.90;;;15.60;99.90;;;;;;5108208;27;20047;-83
2022/05/25 11:36:25;;;;;;;4.50;1.75;;;15.90;99.90;;;;;;5107739;28;20043;-82
2022/05/25 11:38:55;;;;;;;4.03;1.52;;;16.50;99.90;;;;;;5086045;28;20062;-82
2022/05/25 11:41:30;;;;;;;3.80;1.20;;;17.40;99.90;;;;;;5108369;28;20430;-83
2022/05/25 11:44:21;;;;;;;2.35;1.30;;;17.00;99.90;;;;;;5108813;28;20058;-82
2022/05/25 11:46:50;;;;;;;1.92;1.58;;;17.10;99.90;;;;;;5108581;28;20051;-83
2022/05/25 11:49:59;;;;;;;2.40;1.20;;;17.20;99.90;;;;;;5108091;27;20052;-83
2022/05/25 11:52:36;;;;;;;2.30;1.98;;;17.40;99.90;;;;;;5107504;28;20131;-83
2022/05/25 11:55:15;;;;;;;4.07;2.35;;;17.60;99.90;;;;;;5106615;28;20043;-83
2022/05/25 11:58:00;;;;;;;5.28;2.75;;;18.40;99.90;;;;;;5108396;28;20048;-83
2022/05/25 12:00:33;;;;;;;4.15;3.00;;;18.10;99.90;;;;;;5108398;28;20164;-83
2022/05/25 12:03:03;;;;;;;5.15;3.03;;;18.10;99.90;;;;;;5107974;27;20427;-83
2022/05/25 12:05:49;;;;;;;3.92;3.10;;;18.20;99.90;;;;;;5108699;28;20042;-82
2022/05/25 12:08:27;;;;;;;5.25;3.63;;;18.10;99.90;;;;;;5108183;28;20096;-82
2022/05/25 12:11:25;;;;;;;3.72;2.72;;;17.90;99.90;;;;;;5106153;28;20052;-83
2022/05/25 12:13:58;;;;;;;5.07;3.05;;;17.70;99.90;;;;;;5097641;28;20043;-82
2022/05/25 12:16:51;;;;;;;6.20;2.88;;;17.50;99.90;;;;;;5114637;28;20040;-81
2022/05/25 12:19:38;;;;;;;5.72;2.80;;;17.40;99.90;;;;;;5111189;28;20062;-81
2022/05/25 12:22:08;;;;;;;2.63;1.88;;;17.60;99.90;;;;;;5110003;28;20299;-82
2022/05/25 12:24:56;;;;;;;3.22;1.38;;;17.90;99.90;;;;;;5108118;28;20051;-82
2022/05/25 12:27:29;;;;;;;2.65;0.90;;;18.90;99.90;;;;;;5107008;28;20100;-82
2022/05/25 12:30:00;;;;;;;3.45;1.50;;;18.20;99.90;;;;;;5106646;28;20504;-83
2022/05/25 12:32:27;;;;;;;3.08;1.13;;;18.40;99.90;;;;;;5106294;28;20098;-83
2022/05/25 12:34:55;;;;;;;2.30;1.00;;;18.50;99.90;;;;;;5108187;28;20054;-82
2022/05/25 12:37:30;;;;;;;2.97;1.35;;;18.50;99.90;;;;;;5107241;28;20046;-82
2022/05/25 12:39:59;;;;;;;0.80;0.70;;;18.40;99.90;;;;;;5107767;28;20051;-83
2022/05/25 12:42:24;;;;;;;3.17;1.20;;;18.40;99.90;;;;;;5106289;28;20149;-83
2022/05/25 12:50:41;;;;;;;1.67;0.60;;;18.30;99.90;;;;;;5107103;28;20048;-82
2022/05/25 12:53:32;;;;;;;1.42;0.30;;;18.30;99.90;;;;;;5107479;28;20035;-83
2022/05/25 12:56:05;;;;;;;4.55;0.38;;;18.40;99.30;;;;;;5102020;28;20087;-83
2022/05/25 12:58:59;;;;;;;0.95;0.20;;;18.50;99.60;;;;;;5106600;28;20547;-83
2022/05/25 13:01:30;;;;;;;2.03;0.30;;;18.70;95.90;;;;;;5107262;28;20052;-82
2022/05/25 13:03:56;;;;;;;2.45;0.30;;;18.90;99.30;;;;;;5105643;28;20051;-85
2022/05/25 13:06:35;;;;;;;1.05;0.35;;;19.30;98.80;;;;;;5105529;28;20134;-83
2022/05/25 13:09:17;;;;;;;2.03;0.28;;;19.60;96.20;;;;;;5106418;28;20050;-84
2022/05/25 13:11:51;;;;;;;1.55;0.30;;;19.80;91.30;;;;;;5105273;28;20127;-82
2022/05/25 13:14:16;;;;;;;1.35;0.30;;;19.80;92.40;;;;;;5105830;28;20046;-83
2022/05/25 13:16:42;;;;;;;1.70;0.30;;;19.70;92.60;;;;;;5104528;28;20404;-83
2022/05/25 13:19:36;;;;;;;1.85;0.20;;;19.40;89.40;;;;;;5105157;28;20073;-82
2022/05/25 13:22:17;;;;;;;1.65;0.25;;;19.50;82.20;;;;;;5107433;28;20039;-83
2022/05/25 13:25:07;;;;;;;7.25;0.60;;;19.60;84.90;;;;;;5106555;28;20088;-83
2022/05/25 13:28:22;;;;;;;1.48;0.20;;;19.70;78.10;;;;;;5088276;28;20050;-82
2022/05/25 13:31:24;;;;;;;3.10;0.30;;;19.70;71.90;;;;;;5107305;28;20043;-83
2022/05/25 13:33:50;;;;;;;0.82;0.20;;;19.60;73.80;;;;;;5106316;28;20058;-82
2022/05/25 13:36:24;;;;;;;4.97;0.40;;;19.30;83.30;;;;;;5106274;28;20466;-82
2022/05/25 13:38:57;;;;;;;2.60;1.25;;;19.00;72.30;;;;;;5106792;28;20047;-83
2022/05/25 13:41:25;;;;;;;2.92;0.20;;;18.90;72.70;;;;;;5105577;27;20082;-83
2022/05/25 13:43:59;;;;;;;4.60;0.20;;;18.70;78.70;;;;;;5105197;28;20044;-82